Time;durP1;ratioP1;P1;durP2;ratioP2;P2;SDS_P1;SDS_P2;PMS_P1;PMS_P2;Temp;Humidity;BMP_temperature;BMP_pressure;BME280_temperature;BME280_humidity;BME280_pressure;Samples;Min_cycle;Max_cycle;Signal;HPM_P1;HPM_P2
2021/11/17 02:26:22;;;;;;;;;97.50;72.00;;;;;-2.41;71.72;102749.41;4900825;29;8886;-76
2021/11/17 02:29:36;;;;;;;;;92.50;71.25;;;;;-2.25;71.29;102749.13;4897985;29;8862;-76
2021/11/17 02:32:51;;;;;;;;;74.50;59.00;;;;;-2.17;70.94;102745.44;4892358;29;8844;-76
2021/11/17 02:35:52;;;;;;;;;76.50;63.00;;;;;-2.17;71.20;102733.75;4913854;29;8852;-76
2021/11/17 02:38:58;;;;;;;;;66.75;56.50;;;;;-2.26;70.64;102730.34;4898666;29;8924;-77
2021/11/17 02:42:01;;;;;;;;;62.50;52.25;;;;;-2.37;71.00;102726.31;4898693;29;8886;-76
2021/11/17 02:45:15;;;;;;;;;60.50;52.00;;;;;-2.19;70.12;102722.28;4902152;29;8878;-76
2021/11/17 02:48:26;;;;;;;;;74.50;54.25;;;;;-2.17;70.15;102721.03;4899404;29;8868;-76
2021/11/17 02:51:37;;;;;;;;;70.75;55.25;;;;;-2.17;69.37;102721.03;4893598;29;8983;-76
2021/11/17 02:55:10;;;;;;;;;69.00;54.50;;;;;-2.18;69.27;102722.06;4897737;29;8855;-76
2021/11/17 02:58:12;;;;;;;;;69.50;57.50;;;;;-2.54;69.93;102717.59;4915655;29;8879;-76
2021/11/17 03:01:58;;;;;;;;;77.25;60.00;;;;;-2.72;70.31;102728.06;4916605;29;8918;-76
2021/11/17 03:05:09;;;;;;;;;64.50;49.50;;;;;-2.37;69.82;102725.47;4908547;29;8895;-75
2021/11/17 03:08:19;;;;;;;;;74.50;57.50;;;;;-2.58;69.64;102729.88;4902960;29;8899;-76
2021/11/17 03:11:31;;;;;;;;;72.50;57.50;;;;;-2.67;70.54;102733.75;4891872;29;8875;-76
2021/11/17 03:14:55;;;;;;;;;83.25;67.25;;;;;-2.81;70.97;102730.06;4903154;29;9601;-76
2021/11/17 03:17:59;;;;;;;;;87.25;65.75;;;;;-2.85;70.72;102736.03;4907129;28;8910;-75
2021/11/17 03:21:10;;;;;;;;;88.50;70.50;;;;;-3.02;72.22;102731.88;4903517;29;8866;-76
2021/11/17 03:24:27;;;;;;;;;80.00;63.00;;;;;-2.66;70.91;102730.00;4931154;29;8860;-76
2021/11/17 03:27:51;;;;;;;;;83.25;68.00;;;;;-2.85;70.21;102731.44;4934969;29;9617;-77
2021/11/17 03:30:56;;;;;;;;;91.75;69.00;;;;;-2.94;71.33;102734.47;4923677;29;8855;-76
2021/11/17 03:34:14;;;;;;;;;78.75;64.25;;;;;-3.12;71.14;102730.31;4922405;29;8851;-76
2021/11/17 03:37:12;;;;;;;;;85.25;68.25;;;;;-2.88;70.87;102722.88;4921808;29;8958;-76
2021/11/17 03:40:13;;;;;;;;;90.50;71.00;;;;;-3.05;71.75;102716.03;4933487;29;8937;-75
2021/11/17 03:43:30;;;;;;;;;85.75;64.50;;;;;-3.02;71.00;102721.06;4934870;29;8856;-75
2021/11/17 03:46:35;;;;;;;;;89.00;67.00;;;;;-3.14;71.77;102710.75;4909900;29;8990;-75
2021/11/17 03:49:59;;;;;;;;;85.25;64.25;;;;;-3.02;70.92;102716.47;4935079;29;8966;-76
2021/11/17 03:53:13;;;;;;;;;74.00;60.50;;;;;-2.98;71.29;102711.53;4915943;29;8878;-76
2021/11/17 03:56:33;;;;;;;;;89.50;68.50;;;;;-2.86;70.59;102702.69;4915708;29;8973;-76
2021/11/17 03:59:47;;;;;;;;;74.00;59.50;;;;;-3.13;70.81;102708.88;4920875;29;8875;-76
2021/11/17 04:02:55;;;;;;;;;90.25;71.50;;;;;-3.17;71.32;102712.97;4914929;29;8866;-75
2021/11/17 04:06:11;;;;;;;;;79.50;66.75;;;;;-3.30;71.61;102712.81;4916475;29;8948;-76
2021/11/17 04:09:12;;;;;;;;;71.50;59.50;;;;;-3.25;71.90;102707.66;4929848;29;8934;-75
2021/11/17 04:12:37;;;;;;;;;71.25;58.25;;;;;-3.35;72.11;102702.56;4934648;29;8880;-76
2021/11/17 04:15:32;;;;;;;;;72.75;56.25;;;;;-3.22;71.67;102699.16;4934404;29;8875;-76
2021/11/17 04:18:40;;;;;;;;;78.75;60.25;;;;;-3.27;71.70;102699.75;4934340;29;8865;-76
2021/11/17 04:21:42;;;;;;;;;61.75;46.75;;;;;-3.18;71.29;102705.88;4934503;29;9036;-76
2021/11/17 04:24:44;;;;;;;;;84.25;62.00;;;;;-3.26;71.24;102704.13;4915764;29;8926;-75
2021/11/17 04:27:53;;;;;;;;;80.75;63.50;;;;;-3.16;71.58;102699.25;4934269;29;8866;-76
2021/11/17 04:31:15;;;;;;;;;84.25;62.75;;;;;-3.20;71.01;102699.84;4935215;29;8846;-76
2021/11/17 04:34:26;;;;;;;;;81.25;65.50;;;;;-3.29;70.99;102704.53;4938977;29;8865;-74
2021/11/17 04:37:57;;;;;;;;;85.50;66.00;;;;;-3.26;71.81;102698.72;4936728;29;8865;-75
2021/11/17 04:41:28;;;;;;;;;70.50;58.00;;;;;-3.17;70.82;102694.84;4938007;29;9632;-75
2021/11/17 04:44:41;;;;;;;;;88.50;71.50;;;;;-3.23;70.75;102687.50;4938848;29;8838;-75
2021/11/17 04:47:55;;;;;;;;;79.00;64.25;;;;;-3.04;70.43;102680.66;4925082;29;9600;-76
2021/11/17 04:51:00;;;;;;;;;95.50;72.75;;;;;-3.34;72.41;102679.06;4933007;29;8835;-76
2021/11/17 04:54:07;;;;;;;;;81.25;63.75;;;;;-3.37;73.03;102682.97;4925023;29;8963;-75
2021/11/17 04:57:05;;;;;;;;;76.50;60.25;;;;;-3.61;74.58;102678.69;4937387;29;8842;-76
2021/11/17 05:00:26;;;;;;;;;66.75;53.00;;;;;-3.36;74.35;102677.38;4937565;29;8982;-76
2021/11/17 05:03:34;;;;;;;;;66.00;55.25;;;;;-3.27;72.62;102682.69;4925029;29;9659;-76
2021/11/17 05:06:55;;;;;;;;;70.00;59.00;;;;;-3.40;73.76;102680.63;4926438;29;8948;-76
2021/11/17 05:10:04;;;;;;;;;70.50;54.00;;;;;-3.24;74.20;102685.00;4906473;29;8836;-75
2021/11/17 05:13:06;;;;;;;;;60.75;50.50;;;;;-3.23;74.30;102686.66;4898177;29;8864;-75
2021/11/17 05:16:11;;;;;;;;;67.50;55.00;;;;;-3.10;73.93;102693.06;4931365;29;8854;-76
2021/11/17 05:19:12;;;;;;;;;68.00;54.25;;;;;-3.05;73.53;102694.38;4916412;29;8899;-76
2021/11/17 05:22:40;;;;;;;;;81.25;64.50;;;;;-3.16;74.43;102701.94;4918262;29;8844;-75
2021/11/17 05:26:14;;;;;;;;;76.50;63.00;;;;;-3.12;73.98;102710.53;4901044;29;8860;-75
2021/11/17 05:29:43;;;;;;;;;77.50;63.00;;;;;-3.22;75.28;102713.56;4859143;29;8866;-76
2021/11/17 05:32:42;;;;;;;;;84.50;67.50;;;;;-3.20;75.11;102716.06;4903223;29;9706;-77
2021/11/17 05:35:37;;;;;;;;;99.75;77.25;;;;;-2.84;74.22;102707.91;4905175;29;8852;-74
2021/11/17 05:38:39;;;;;;;;;75.75;63.25;;;;;-2.59;73.63;102711.09;4917161;29;8946;-73
2021/11/17 05:42:03;;;;;;;;;78.50;65.75;;;;;-2.57;73.48;102709.88;4894003;29;8852;-73
2021/11/17 05:45:11;;;;;;;;;74.00;60.75;;;;;-2.33;73.69;102707.78;4903810;29;8860;-73
2021/11/17 05:48:21;;;;;;;;;69.00;53.75;;;;;-2.33;75.02;102710.47;4916017;29;8840;-72
2021/11/17 05:51:23;;;;;;;;;75.75;60.75;;;;;-2.20;75.11;102713.31;4917544;29;8860;-72
2021/11/17 05:54:27;;;;;;;;;84.75;64.00;;;;;-2.17;74.98;102704.78;4904859;29;8927;-73
2021/11/17 05:57:49;;;;;;;;;85.00;66.00;;;;;-1.89;74.95;102712.06;4904653;29;8859;-72
2021/11/17 06:01:00;;;;;;;;;71.25;59.00;;;;;-1.77;74.38;102714.00;4917480;29;8937;-72
2021/11/17 06:06:51;;;;;;;;;79.75;65.75;;;;;-1.27;73.07;102706.53;4917474;29;8864;-72
2021/11/17 06:09:46;;;;;;;;;95.00;74.50;;;;;-1.24;73.41;102708.84;4917144;29;8860;-72
2021/11/17 06:12:42;;;;;;;;;70.50;59.00;;;;;-0.97;74.03;102701.63;4917283;29;8836;-72
2021/11/17 06:15:40;;;;;;;;;77.50;64.25;;;;;-0.78;73.13;102699.16;4917044;29;8871;-71
2021/11/17 06:18:37;;;;;;;;;86.75;66.25;;;;;-0.62;72.27;102704.19;4932263;29;8851;-71
2021/11/17 06:21:34;;;;;;;;;91.50;71.75;;;;;-0.47;72.09;102706.72;4936081;29;8854;-72
2021/11/17 06:24:29;;;;;;;;;74.00;58.50;;;;;-0.19;72.25;102698.38;4935921;29;8834;-72
2021/11/17 06:27:30;;;;;;;;;37.33;35.67;;;;;0.01;72.95;102707.34;4936014;29;8850;-71
2021/11/17 06:30:26;;;;;;;;;81.00;64.00;;;;;0.27;71.33;102701.84;4923866;29;8822;-72
2021/11/17 06:33:23;;;;;;;;;85.75;69.00;;;;;0.40;71.21;102697.44;4935850;29;8862;-72
2021/11/17 06:36:18;;;;;;;;;105.75;75.50;;;;;0.51;70.88;102694.03;4935510;28;8843;-72
2021/11/17 06:39:14;;;;;;;;;85.33;62.00;;;;;0.61;71.48;102701.72;4933325;29;8886;-71
2021/11/17 06:41:42;;;;;;;;;72.75;58.00;;;;;0.82;70.88;102707.72;4936614;29;8846;-73
2021/11/17 06:44:39;;;;;;;;;92.33;69.33;;;;;0.88;71.20;102702.47;4933602;29;8881;-72
2021/11/17 06:47:35;;;;;;;;;99.67;75.00;;;;;0.88;70.42;102695.13;4935379;29;8847;-72
2021/11/17 06:50:32;;;;;;;;;104.50;77.50;;;;;0.99;70.80;102704.50;4935763;29;8868;-72
2021/11/17 06:53:29;;;;;;;;;97.50;71.75;;;;;0.91;71.61;102693.84;4922527;29;9636;-72
2021/11/17 06:56:27;;;;;;;;;83.67;66.00;;;;;1.43;70.18;102691.84;4934796;29;8874;-72
2021/11/17 06:59:23;;;;;;;;;148.50;85.50;;;;;1.78;69.08;102695.78;4934998;29;8861;-72
2021/11/17 07:02:19;;;;;;;;;81.00;66.33;;;;;1.94;69.05;102689.75;4935331;29;8941;-72
2021/11/17 07:05:16;;;;;;;;;78.00;62.33;;;;;2.25;68.13;102690.69;4935268;29;8858;-72
2021/11/17 07:08:04;;;;;;;;;87.00;67.00;;;;;2.47;67.70;102686.47;4936311;29;8826;-71
2021/11/17 07:10:59;;;;;;;;;77.67;62.00;;;;;2.60;66.95;102692.81;4935829;29;8846;-72
2021/11/17 07:13:55;;;;;;;;;84.33;63.67;;;;;2.69;66.94;102691.47;4935095;29;8842;-72
2021/11/17 07:16:52;;;;;;;;;79.33;62.00;;;;;2.86;66.22;102695.22;4935794;29;8945;-71
2021/11/17 07:19:48;;;;;;;;;88.67;67.67;;;;;3.06;66.33;102693.03;4936024;29;8850;-71
2021/11/17 07:22:45;;;;;;;;;86.67;66.67;;;;;3.24;65.68;102689.44;4934330;29;9005;-71
2021/11/17 07:25:40;;;;;;;;;67.33;50.33;;;;;3.39;64.90;102689.00;4922188;29;8861;-72
2021/11/17 07:28:36;;;;;;;;;52.67;45.33;;;;;3.52;64.55;102696.16;4922756;29;8915;-72
2021/11/17 07:31:32;;;;;;;;;52.00;46.67;;;;;3.63;64.83;102687.97;4934441;29;8851;-72
2021/11/17 07:34:28;;;;;;;;;63.00;53.00;;;;;3.82;63.46;102699.63;4934333;29;9588;-71
2021/11/17 07:37:23;;;;;;;;;53.33;46.00;;;;;3.96;63.35;102704.91;4921632;29;8848;-71
2021/11/17 07:40:19;;;;;;;;;48.67;42.67;;;;;4.29;62.33;102696.06;4915570;29;11649;-72
2021/11/17 07:43:16;;;;;;;;;53.00;43.67;;;;;4.35;61.24;102693.19;4918954;29;8835;-73
2021/11/17 07:46:12;;;;;;;;;43.00;33.50;;;;;4.60;61.15;102692.94;4934271;29;11523;-72
2021/11/17 07:49:08;;;;;;;;;47.00;42.50;;;;;4.60;60.38;102700.31;4934056;29;11547;-72
2021/11/17 07:52:04;;;;;;;;;46.75;41.25;;;;;4.74;59.67;102696.22;4916597;29;11563;-71
2021/11/17 07:55:02;;;;;;;;;42.50;41.50;;;;;4.76;59.83;102698.75;4933489;29;11571;-72
2021/11/17 07:57:30;;;;;;;;;60.75;44.00;;;;;4.99;59.00;102704.97;4935373;29;11651;-73
2021/11/17 08:00:29;;;;;;;;;41.25;35.00;;;;;5.05;58.33;102696.81;4934010;29;11599;-72
2021/11/17 08:03:29;;;;;;;;;41.00;38.25;;;;;5.29;57.54;102696.50;4934003;29;11567;-74
2021/11/17 08:06:26;;;;;;;;;24.50;20.75;;;;;5.20;57.02;102697.94;4935359;29;11544;-73
2021/11/17 08:09:22;;;;;;;;;31.00;31.00;;;;;5.27;57.08;102697.78;4924717;28;11562;-72
2021/11/17 08:12:19;;;;;;;;;25.00;25.00;;;;;5.11;57.04;102695.84;4935351;29;11558;-73
2021/11/17 08:15:14;;;;;;;;;27.50;26.75;;;;;5.07;57.42;102703.75;4935659;29;11559;-71
2021/11/17 08:18:10;;;;;;;;;31.25;30.00;;;;;5.27;56.63;102697.78;4938067;29;11548;-71
2021/11/17 08:21:07;;;;;;;;;23.50;23.50;;;;;5.51;56.27;102703.97;4919983;29;11543;-71
2021/11/17 08:24:03;;;;;;;;;62.50;40.50;;;;;5.74;55.55;102687.34;4937751;29;11577;-72
2021/11/17 08:26:59;;;;;;;;;31.25;30.25;;;;;5.42;55.14;102684.34;4937768;29;11552;-72
2021/11/17 08:29:57;;;;;;;;;33.00;29.00;;;;;5.45;55.44;102677.56;4936969;29;11655;-71
2021/11/17 08:32:53;;;;;;;;;37.50;34.00;;;;;5.48;55.23;102677.03;4936690;29;11543;-71
2021/11/17 08:35:49;;;;;;;;;24.00;23.00;;;;;5.73;55.00;102671.97;4935319;29;11548;-72
2021/11/17 08:38:50;;;;;;;;;18.00;17.50;;;;;5.65;55.04;102666.06;4938413;29;11540;-72
2021/11/17 08:41:46;;;;;;;;;51.00;40.25;;;;;5.41;55.55;102662.66;4937445;28;11659;-71
2021/11/17 08:44:43;;;;;;;;;46.25;39.25;;;;;5.51;55.39;102665.56;4923370;29;11549;-72
2021/11/17 08:47:41;;;;;;;;;49.25;43.50;;;;;5.49;55.76;102657.56;4937562;29;11572;-72
2021/11/17 08:50:38;;;;;;;;;55.75;48.25;;;;;5.67;55.56;102656.50;4937527;29;12263;-71
2021/11/17 08:53:36;;;;;;;;;43.25;41.25;;;;;5.89;55.37;102656.56;4937275;29;11657;-71
2021/11/17 08:56:33;;;;;;;;;36.75;35.00;;;;;6.11;54.84;102645.66;4937330;29;11549;-71
2021/11/17 08:59:31;;;;;;;;;42.50;39.50;;;;;5.85;54.77;102649.91;4937245;29;11575;-71
2021/11/17 09:02:27;;;;;;;;;38.75;35.75;;;;;5.97;54.41;102641.59;4918438;29;11563;-72
2021/11/17 09:05:31;;;;;;;;;34.25;32.75;;;;;6.16;54.48;102633.91;4935525;29;12325;-72
2021/11/17 09:08:29;;;;;;;;;55.75;42.00;;;;;6.75;52.54;102620.31;4923798;29;11651;-72
2021/11/17 09:11:25;;;;;;;;;49.00;43.25;;;;;6.60;52.91;102621.84;4936032;29;11762;-72
2021/11/17 09:14:21;;;;;;;;;59.00;49.25;;;;;6.79;52.02;102625.06;4923075;29;11637;-72
2021/11/17 10:02:38;;;;;;;;;34.75;33.00;;;;;8.28;43.01;102551.56;4916913;29;11708;-72
2021/11/17 10:12:53;;;;;;;;;72.00;56.25;;;;;9.52;40.14;102548.66;4916631;29;11705;-69
2021/11/17 10:15:52;;;;;;;;;25.25;22.25;;;;;9.33;39.77;102544.81;4909506;29;11695;-71
2021/11/17 10:18:52;;;;;;;;;37.00;34.00;;;;;9.54;39.12;102545.63;4916734;29;12207;-70
2021/11/17 10:21:55;;;;;;;;;28.75;27.75;;;;;9.31;39.00;102545.09;4917015;29;12441;-69
2021/11/17 10:25:06;;;;;;;;;35.25;27.00;;;;;9.94;40.82;102550.22;4925039;29;11635;-70
2021/11/17 10:28:02;;;;;;;;;18.00;17.75;;;;;9.73;36.59;102549.44;4920959;29;11625;-70
2021/11/17 10:31:18;;;;;;;;;17.25;17.25;;;;;9.57;38.42;102550.56;4922536;29;11598;-71
2021/11/17 10:34:36;;;;;;;;;16.75;16.00;;;;;9.60;40.27;102541.75;4935647;29;11244;-72
2021/11/17 10:37:44;;;;;;;;;17.25;16.00;;;;;9.53;36.21;102546.75;4935568;29;11464;-71
2021/11/17 10:40:46;;;;;;;;;30.00;24.75;;;;;9.27;38.08;102545.91;4910915;29;11691;-70
2021/11/17 10:43:57;;;;;;;;;16.00;16.00;;;;;9.81;37.13;102546.09;4934404;29;11616;-70
2021/11/17 10:46:59;;;;;;;;;13.50;13.50;;;;;9.94;36.38;102552.97;4914013;29;11574;-70
2021/11/17 10:50:06;;;;;;;;;19.75;18.75;;;;;10.23;35.71;102553.19;4935515;29;11616;-70
2021/11/17 10:53:14;;;;;;;;;29.75;24.00;;;;;9.94;36.05;102545.50;4935463;29;11209;-71
2021/11/17 10:56:14;;;;;;;;;23.00;19.50;;;;;10.16;37.13;102553.44;4922657;29;11610;-70
2021/11/17 10:59:10;;;;;;;;;21.00;18.00;;;;;10.11;36.46;102542.41;4929568;29;11599;-71
2021/11/17 11:02:07;;;;;;;;;25.25;23.75;;;;;10.24;36.92;102538.25;4935152;29;11515;-71
2021/11/17 11:05:11;;;;;;;;;19.25;19.25;;;;;9.89;40.98;102539.16;4935221;29;11517;-71
2021/11/17 11:08:26;;;;;;;;;20.00;20.00;;;;;10.27;38.78;102541.28;4934487;29;11455;-70
2021/11/17 11:11:24;;;;;;;;;25.75;25.75;;;;;9.58;36.71;102524.59;4935409;29;11497;-71
2021/11/17 11:14:37;;;;;;;;;25.25;23.75;;;;;10.13;38.85;102528.31;4933455;29;11627;-71
2021/11/17 11:17:32;;;;;;;;;40.75;38.75;;;;;9.83;36.05;102526.50;4935161;29;11495;-71
2021/11/17 11:20:47;;;;;;;;;22.50;20.25;;;;;9.79;36.42;102517.94;4935012;29;11504;-71
2021/11/17 11:24:05;;;;;;;;;32.25;30.00;;;;;9.95;36.16;102524.22;4934831;29;12175;-71
2021/11/17 11:27:00;;;;;;;;;37.75;36.00;;;;;10.07;36.64;102521.97;4935012;29;11565;-71
2021/11/17 11:30:02;;;;;;;;;33.25;33.00;;;;;10.48;35.36;102519.84;4934861;29;11614;-70
2021/11/17 11:33:17;;;;;;;;;37.25;34.75;;;;;10.70;35.35;102513.91;4916597;29;11605;-70
2021/11/17 11:36:13;;;;;;;;;50.00;43.25;;;;;10.27;35.10;102501.72;4927806;29;11641;-71
2021/11/17 11:39:08;;;;;;;;;34.00;34.00;;;;;9.85;35.50;102504.94;4934592;29;11568;-71
2021/11/17 11:42:27;;;;;;;;;29.50;28.50;;;;;10.15;35.49;102499.28;4920980;29;11578;-70
2021/11/17 11:45:25;;;;;;;;;29.00;27.00;;;;;10.20;36.27;102492.91;4917132;29;11493;-70
2021/11/17 11:48:24;;;;;;;;;37.50;35.50;;;;;10.22;35.66;102494.28;4916424;29;11533;-71
2021/11/17 11:51:22;;;;;;;;;33.25;31.50;;;;;9.78;36.09;102499.69;4931813;29;11462;-71
2021/11/17 11:54:30;;;;;;;;;30.25;27.75;;;;;9.77;35.86;102489.75;4932993;29;12289;-70
2021/11/17 11:57:29;;;;;;;;;25.00;24.00;;;;;9.53;36.63;102494.25;4930540;29;11498;-70
2021/11/17 12:00:36;;;;;;;;;15.50;14.50;;;;;9.62;36.01;102487.03;4929452;29;11540;-70
2021/11/17 12:03:35;;;;;;;;;33.00;33.00;;;;;9.44;35.71;102485.72;4932816;29;11585;-69
2021/11/17 12:06:40;;;;;;;;;26.00;25.50;;;;;9.67;35.40;102481.50;4934430;29;11579;-71
2021/11/17 12:09:55;;;;;;;;;38.25;37.75;;;;;9.89;35.21;102486.66;4934555;29;11563;-71
2021/11/17 12:12:50;;;;;;;;;49.50;39.00;;;;;9.48;35.85;102481.28;4934534;29;11504;-71
2021/11/17 12:16:19;;;;;;;;;52.75;41.25;;;;;9.72;35.39;102489.75;4931777;29;11540;-70
2021/11/17 12:19:30;;;;;;;;;30.25;29.50;;;;;9.80;35.58;102485.59;4928641;29;11586;-69
2021/11/17 12:22:43;;;;;;;;;35.25;32.50;;;;;9.64;34.59;102495.88;4918089;29;11480;-71
2021/11/17 12:25:39;;;;;;;;;27.75;20.25;;;;;9.53;35.40;102488.72;4918433;29;11486;-70
2021/11/17 12:28:45;;;;;;;;;24.25;24.25;;;;;9.50;35.82;102483.75;4928384;29;11473;-70
2021/11/17 12:32:18;;;;;;;;;39.75;33.75;;;;;9.39;35.61;102486.53;4931860;29;11612;-69
2021/11/17 12:35:14;;;;;;;;;33.00;29.75;;;;;9.13;36.17;102485.75;4932583;29;12244;-71
2021/11/17 12:38:25;;;;;;;;;27.75;23.50;;;;;9.17;36.03;102492.38;4933561;29;11583;-71
2021/11/17 12:41:32;;;;;;;;;21.00;20.00;;;;;8.99;36.19;102472.78;4918497;29;11578;-71
2021/11/17 12:44:41;;;;;;;;;13.25;13.25;;;;;8.85;35.98;102475.28;4928829;29;11493;-70
2021/11/17 12:47:46;;;;;;;;;17.75;16.00;;;;;8.74;36.23;102468.09;4932147;29;11763;-69
2021/11/17 12:50:48;;;;;;;;;12.50;12.00;;;;;8.66;36.37;102474.97;4932153;29;11448;-70
2021/11/17 12:53:56;;;;;;;;;18.25;18.25;;;;;8.74;35.99;102466.19;4935697;29;11450;-69
2021/11/17 12:57:20;;;;;;;;;32.25;32.00;;;;;8.74;36.07;102457.03;4935672;29;11475;-70
2021/11/17 13:00:19;;;;;;;;;19.00;19.00;;;;;8.77;36.65;102468.38;4918326;29;11501;-70
2021/11/17 13:03:32;;;;;;;;;16.75;16.75;;;;;8.84;36.22;102465.34;4918271;29;11657;-69
2021/11/17 13:06:40;;;;;;;;;25.75;24.75;;;;;8.73;36.00;102464.50;4927106;29;11553;-69
2021/11/17 13:09:56;;;;;;;;;31.75;30.50;;;;;8.85;36.13;102467.81;4934620;29;12303;-69
2021/11/17 13:13:11;;;;;;;;;22.00;22.00;;;;;9.04;35.59;102467.25;4933635;29;11502;-70
2021/11/17 13:16:17;;;;;;;;;90.50;59.25;;;;;8.91;35.21;102463.16;4936530;29;12380;-70
2021/11/17 13:19:30;;;;;;;;;35.00;32.50;;;;;8.76;34.99;102466.72;4935783;29;11585;-70
2021/11/17 13:22:29;;;;;;;;;63.25;52.25;;;;;8.64;36.00;102466.97;4936055;29;11542;-70
2021/11/17 13:25:48;;;;;;;;;71.75;58.00;;;;;8.37;36.13;102471.94;4935541;29;11664;-72
2021/11/17 13:28:50;;;;;;;;;58.75;48.25;;;;;8.23;36.19;102470.75;4937308;29;11605;-72
2021/11/17 13:31:46;;;;;;;;;35.00;34.00;;;;;8.16;36.29;102473.75;4936887;29;11647;-71
2021/11/17 13:34:50;;;;;;;;;47.75;41.75;;;;;7.76;36.75;102475.28;4936388;29;11549;-72
2021/11/17 13:37:47;;;;;;;;;58.75;47.00;;;;;7.64;37.16;102477.41;4935143;29;11591;-70
2021/11/17 13:40:45;;;;;;;;;70.00;54.00;;;;;7.47;37.34;102474.84;4936594;29;11547;-72
2021/11/17 13:43:40;;;;;;;;;67.25;54.50;;;;;7.34;38.29;102477.22;4918017;29;11573;-72
2021/11/17 13:46:36;;;;;;;;;67.25;54.25;;;;;7.20;38.14;102476.84;4917618;29;11686;-71
2021/11/17 13:49:32;;;;;;;;;82.25;58.75;;;;;7.03;38.49;102479.78;4917726;29;11577;-73
2021/11/17 13:52:31;;;;;;;;;76.67;54.00;;;;;7.01;38.37;102464.63;4917434;29;11613;-72
2021/11/17 13:55:30;;;;;;;;;86.67;61.67;;;;;6.95;38.78;102472.00;4917425;29;8951;-71
2021/11/17 13:58:27;;;;;;;;;91.00;70.00;;;;;7.03;38.93;102468.75;4917292;29;11590;-72
2021/11/17 14:01:24;;;;;;;;;81.67;60.67;;;;;6.72;39.44;102464.94;4918091;29;8879;-72
2021/11/17 14:04:19;;;;;;;;;73.33;57.33;;;;;6.60;40.02;102475.28;4916953;29;11559;-71
2021/11/17 14:07:17;;;;;;;;;93.67;72.67;;;;;6.25;40.69;102471.09;4917100;29;11608;-72
2021/11/17 14:10:13;;;;;;;;;66.00;51.00;;;;;6.30;40.25;102471.16;4917141;29;8841;-72
2021/11/17 14:13:09;;;;;;;;;95.33;73.00;;;;;6.07;41.34;102465.94;4917799;29;11647;-71
2021/11/17 14:15:38;;;;;;;;;66.75;46.25;;;;;5.83;41.71;102465.38;4918123;29;8852;-71
2021/11/17 14:18:08;;;;;;;;;92.67;71.00;;;;;5.91;41.79;102469.59;4917927;29;11630;-71
2021/11/17 14:20:36;;;;;;;;;83.67;63.00;;;;;5.71;42.04;102467.41;4921965;29;8885;-72
2021/11/17 14:23:05;;;;;;;;;69.33;54.33;;;;;5.73;42.14;102466.03;4937016;29;8879;-72
2021/11/17 14:25:34;;;;;;;;;79.67;62.33;;;;;5.67;42.32;102461.56;4937104;29;8843;-73
2021/11/17 14:28:07;;;;;;;;;69.00;53.00;;;;;5.64;42.74;102459.34;4936705;29;8881;-71
2021/11/17 14:30:41;;;;;;;;;68.00;53.67;;;;;5.49;43.07;102461.88;4920021;29;11640;-71
2021/11/17 14:33:17;;;;;;;;;53.25;45.50;;;;;5.36;43.49;102454.84;4937079;29;11548;-72
2021/11/17 14:35:45;;;;;;;;;67.00;51.00;;;;;5.34;43.68;102468.00;4936859;29;11549;-72
2021/11/17 14:38:17;;;;;;;;;51.00;45.75;;;;;5.25;43.77;102464.03;4936592;29;12368;-71
2021/11/17 14:40:51;;;;;;;;;74.33;58.67;;;;;5.25;44.14;102461.28;4936568;29;11574;-70
2021/11/17 14:43:22;;;;;;;;;48.67;43.33;;;;;5.10;44.51;102458.31;4936574;29;11600;-72
2021/11/17 14:45:50;;;;;;;;;61.00;50.67;;;;;5.13;44.38;102460.53;4936574;29;11558;-72
2021/11/17 14:48:20;;;;;;;;;54.00;43.67;;;;;5.12;44.19;102451.47;4919901;29;11557;-72
2021/11/17 14:50:51;;;;;;;;;64.67;53.67;;;;;5.16;44.58;102462.78;4936446;29;11569;-72
2021/11/17 14:53:42;;;;;;;;;61.00;50.33;;;;;4.98;44.57;102458.38;4936759;29;11588;-71
2021/11/17 14:56:12;;;;;;;;;67.00;53.33;;;;;4.96;44.99;102449.59;4936618;29;8854;-71
2021/11/17 14:58:40;;;;;;;;;73.00;58.33;;;;;4.83;45.28;102453.50;4936307;29;11572;-70
2021/11/17 15:01:17;;;;;;;;;77.00;63.67;;;;;4.65;45.80;102446.34;4934018;29;8843;-70
2021/11/17 15:04:13;;;;;;;;;72.00;59.33;;;;;4.58;46.38;102445.69;4934471;29;8992;-71
2021/11/17 15:06:54;;;;;;;;;74.00;60.00;;;;;4.59;46.22;102447.34;4935525;29;8888;-70
2021/11/17 15:09:23;;;;;;;;;88.00;69.00;;;;;4.44;46.58;102447.06;4935892;29;8895;-71
2021/11/17 15:12:28;;;;;;;;;71.33;57.67;;;;;4.49;46.73;102449.91;4917268;29;9051;-71
2021/11/17 15:15:30;;;;;;;;;83.67;62.67;;;;;4.46;46.54;102447.69;4928720;29;8913;-70
2021/11/17 15:18:27;;;;;;;;;84.33;61.33;;;;;4.34;47.01;102455.13;4934302;29;9580;-72
2021/11/17 15:21:23;;;;;;;;;82.67;62.67;;;;;4.45;46.75;102452.31;4935118;29;8866;-72
2021/11/17 15:24:18;;;;;;;;;90.00;63.67;;;;;4.43;47.35;102456.38;4935002;29;8862;-71
2021/11/17 15:27:34;;;;;;;;;82.67;59.67;;;;;4.43;46.96;102461.84;4935286;29;9611;-71
2021/11/17 15:30:39;;;;;;;;;80.67;60.33;;;;;4.44;46.80;102458.84;4934784;29;8846;-71
2021/11/17 15:33:35;;;;;;;;;80.33;66.33;;;;;4.31;47.31;102466.56;4935161;29;8913;-71
2021/11/17 15:36:31;;;;;;;;;90.33;70.67;;;;;4.26;47.40;102461.81;4934903;29;9678;-71
2021/11/17 15:39:26;;;;;;;;;93.00;70.67;;;;;4.22;47.77;102459.81;4916468;29;8861;-71
2021/11/17 15:42:22;;;;;;;;;97.67;73.00;;;;;4.11;47.73;102469.75;4915972;29;8860;-71
2021/11/17 15:45:19;;;;;;;;;90.33;70.67;;;;;3.99;48.04;102461.59;4928559;29;9607;-71
2021/11/17 15:48:16;;;;;;;;;97.33;76.00;;;;;3.97;48.21;102468.38;4934686;29;8862;-71
2021/11/17 15:51:20;;;;;;;;;102.33;78.33;;;;;4.12;48.13;102461.28;4934771;29;8977;-71
2021/11/17 15:54:18;;;;;;;;;91.67;69.33;;;;;4.12;47.87;102461.28;4934103;29;8954;-71
2021/11/17 15:57:14;;;;;;;;;90.00;70.67;;;;;4.13;47.84;102457.47;4934544;29;8846;-71
2021/11/17 16:00:13;;;;;;;;;78.67;63.33;;;;;3.94;48.36;102458.75;4934432;29;8862;-73
2021/11/17 16:03:09;;;;;;;;;80.33;63.67;;;;;4.03;48.23;102451.78;4934773;29;8850;-71
2021/11/17 16:06:04;;;;;;;;;86.00;68.67;;;;;3.95;48.38;102460.41;4934002;29;8866;-71
2021/11/17 16:09:00;;;;;;;;;100.00;72.67;;;;;4.08;48.43;102449.16;4932438;29;8838;-71
2021/11/17 16:11:56;;;;;;;;;74.33;60.00;;;;;3.89;48.83;102464.09;4934446;29;8885;-71
2021/11/17 16:14:53;;;;;;;;;64.67;55.67;;;;;3.85;49.13;102455.56;4934113;29;8864;-72
2021/11/17 16:17:48;;;;;;;;;63.67;50.67;;;;;3.48;49.73;102454.22;4934245;29;8862;-73
2021/11/17 16:20:53;;;;;;;;;72.67;56.00;;;;;3.41;49.74;102454.34;4934250;29;8846;-73
2021/11/17 16:27:05;;;;;;;;;71.67;58.67;;;;;3.49;49.59;102450.41;4934092;29;8867;-72
2021/11/17 16:30:01;;;;;;;;;82.67;63.00;;;;;3.41;49.73;102445.31;4937033;29;8918;-73
2021/11/17 16:32:56;;;;;;;;;65.67;56.00;;;;;3.29;50.27;102442.56;4937278;29;8822;-72
2021/11/17 16:35:53;;;;;;;;;74.00;59.00;;;;;3.24;50.36;102451.50;4937111;29;8854;-73
2021/11/17 16:38:49;;;;;;;;;71.67;58.67;;;;;3.23;50.86;102446.28;4932056;29;8877;-72
2021/11/17 16:41:45;;;;;;;;;79.00;65.00;;;;;3.45;50.07;102444.59;4938473;29;8965;-72
2021/11/17 16:44:41;;;;;;;;;88.00;65.33;;;;;3.53;49.54;102436.03;4937453;29;8858;-73
2021/11/17 16:47:38;;;;;;;;;81.33;63.67;;;;;3.50;50.33;102433.75;4937533;29;8862;-71
2021/11/17 16:50:36;;;;;;;;;87.67;67.00;;;;;3.30;50.59;102431.41;4938958;29;8842;-72
2021/11/17 16:53:32;;;;;;;;;73.33;60.33;;;;;3.23;50.54;102438.09;4938290;29;8846;-72
2021/11/17 16:56:32;;;;;;;;;78.00;59.00;;;;;3.20;50.50;102438.53;4926555;29;8925;-72
2021/11/17 16:59:33;;;;;;;;;80.67;65.00;;;;;3.14;51.07;102434.84;4920798;29;9598;-73
2021/11/17 17:02:07;;;;;;;;;73.33;60.33;;;;;3.03;51.26;102444.72;4923402;29;8874;-73
2021/11/17 17:04:52;;;;;;;;;79.67;63.00;;;;;3.12;51.00;102449.84;4934789;29;8855;-72
2021/11/17 17:07:39;;;;;;;;;81.00;65.33;;;;;2.81;52.80;102443.66;4933976;28;8998;-71
2021/11/17 17:10:10;;;;;;;;;99.33;76.67;;;;;2.64;54.31;102439.94;4903184;29;8868;-72
2021/11/17 17:12:39;;;;;;;;;102.75;78.50;;;;;2.22;55.55;102445.41;4932053;29;8850;-72
2021/11/17 17:15:09;;;;;;;;;97.50;75.75;;;;;1.83;56.71;102438.59;4922236;29;8851;-72